createdAt,value
2023-02-28T00:00:14.741Z,4.67
2023-02-28T00:02:42.842Z,5.00
2023-02-28T00:05:11.256Z,5.06
2023-02-28T00:07:38.028Z,5.00
2023-02-28T00:10:07.491Z,5.19
2023-02-28T00:12:35.503Z,5.10
2023-02-28T00:15:02.688Z,5.08
2023-02-28T00:17:29.235Z,5.16
2023-02-28T00:19:55.740Z,4.71
2023-02-28T00:22:23.124Z,4.98
2023-02-28T00:24:49.737Z,4.91
2023-02-28T00:27:16.317Z,4.85
2023-02-28T00:29:42.865Z,4.89
2023-02-28T00:32:09.408Z,4.71
2023-02-28T00:34:38.847Z,4.92
2023-02-28T00:37:10.193Z,4.72
2023-02-28T00:39:37.767Z,4.90
2023-02-28T00:42:04.814Z,4.86
2023-02-28T00:44:32.048Z,4.87
2023-02-28T00:46:59.720Z,4.85
2023-02-28T00:49:27.741Z,4.89
2023-02-28T00:51:55.634Z,4.83
2023-02-28T00:54:23.408Z,4.88
2023-02-28T00:56:51.396Z,4.67
2023-02-28T00:59:18.764Z,4.61
2023-02-28T01:01:47.072Z,4.57
2023-02-28T01:04:14.470Z,4.35
2023-02-28T01:06:41.310Z,4.31
2023-02-28T01:09:08.339Z,4.28
2023-02-28T01:11:36.442Z,4.30
2023-02-28T01:14:04.964Z,4.19
2023-02-28T01:16:32.010Z,4.35
2023-02-28T01:18:58.972Z,4.22
2023-02-28T01:21:25.600Z,4.04
2023-02-28T01:23:52.237Z,3.90
2023-02-28T01:26:21.572Z,4.28
2023-02-28T01:28:49.267Z,4.25
2023-02-28T01:31:16.529Z,4.34
2023-02-28T01:33:43.372Z,4.15
2023-02-28T01:36:15.385Z,4.18
2023-02-28T01:38:42.241Z,4.38
2023-02-28T01:41:09.465Z,4.41
2023-02-28T01:43:45.251Z,4.50
2023-02-28T01:46:12.827Z,4.52
2023-02-28T01:48:42.936Z,4.44
2023-02-28T01:51:14.132Z,4.24
2023-02-28T01:53:45.837Z,4.36
2023-02-28T01:56:21.273Z,4.45
2023-02-28T01:58:49.589Z,4.24
2023-02-28T02:01:22.292Z,4.26
2023-02-28T02:03:56.122Z,4.20
2023-02-28T02:06:28.962Z,4.29
2023-02-28T02:08:55.659Z,4.07
2023-02-28T02:11:23.577Z,4.19
2023-02-28T02:14:18.126Z,4.17
2023-02-28T02:16:59.796Z,4.02
2023-02-28T02:19:50.875Z,3.52
2023-02-28T02:22:55.513Z,3.76
2023-02-28T02:25:37.266Z,3.31
2023-02-28T02:28:18.514Z,3.52
2023-02-28T02:31:01.065Z,3.59
2023-02-28T02:33:49.340Z,3.55
2023-02-28T02:36:21.056Z,3.53
2023-02-28T02:38:51.490Z,3.64
2023-02-28T02:41:32.504Z,3.52
2023-02-28T02:44:02.011Z,3.72
2023-02-28T02:46:33.829Z,3.62
2023-02-28T02:49:02.043Z,3.79
2023-02-28T02:51:31.566Z,3.69
2023-02-28T02:54:03.581Z,3.83
2023-02-28T02:56:32.940Z,3.73
2023-02-28T02:59:05.477Z,3.60
2023-02-28T03:01:33.379Z,3.29
2023-02-28T03:04:21.469Z,3.46
2023-02-28T03:06:48.478Z,3.35
2023-02-28T03:09:15.087Z,3.46
2023-02-28T03:11:42.761Z,3.32
2023-02-28T03:14:31.810Z,3.50
2023-02-28T03:17:15.188Z,3.43
2023-02-28T03:19:56.882Z,3.63
2023-02-28T03:23:02.801Z,3.56
2023-02-28T03:25:52.224Z,3.73
2023-02-28T03:28:42.947Z,3.73
2023-02-28T03:31:10.087Z,3.71
2023-02-28T03:33:43.500Z,3.65
2023-02-28T03:36:16.887Z,3.59
2023-02-28T03:38:58.733Z,3.67
2023-02-28T03:41:39.921Z,3.58
2023-02-28T03:44:11.858Z,3.56
2023-02-28T03:46:45.393Z,3.41
2023-02-28T03:49:19.124Z,3.46
2023-02-28T03:51:47.345Z,3.49
2023-02-28T03:54:17.845Z,3.21
2023-02-28T03:56:51.611Z,3.18
2023-02-28T03:59:31.182Z,3.35
2023-02-28T04:01:59.338Z,3.40
2023-02-28T04:04:26.433Z,3.24
2023-02-28T04:06:53.723Z,3.47
2023-02-28T04:09:20.278Z,3.15
2023-02-28T04:11:53.119Z,3.42
2023-02-28T04:14:20.119Z,3.35
2023-02-28T04:16:46.807Z,3.27
2023-02-28T04:19:14.261Z,3.35
2023-02-28T04:21:45.436Z,3.35
2023-02-28T04:24:17.542Z,3.32
2023-02-28T04:26:46.729Z,3.39
2023-02-28T04:29:15.464Z,3.29
2023-02-28T04:31:42.017Z,3.22
2023-02-28T04:34:09.013Z,3.36
2023-02-28T04:36:35.831Z,3.30
2023-02-28T04:39:02.477Z,3.29
2023-02-28T04:41:32.176Z,3.19
2023-02-28T04:43:59.280Z,3.27
2023-02-28T04:46:25.832Z,2.85
2023-02-28T04:48:52.364Z,3.19
2023-02-28T04:51:20.732Z,2.93
2023-02-28T04:53:48.008Z,3.10
2023-02-28T04:56:16.881Z,2.78
2023-02-28T04:58:43.786Z,2.79
2023-02-28T05:01:24.030Z,2.94
2023-02-28T05:03:52.056Z,2.90
2023-02-28T05:06:19.653Z,2.46
2023-02-28T05:08:46.272Z,2.77
2023-02-28T05:11:21.753Z,2.81
2023-02-28T05:13:48.720Z,2.97
2023-02-28T05:16:15.993Z,2.99
2023-02-28T05:18:42.920Z,2.73
2023-02-28T05:21:26.618Z,2.85
2023-02-28T05:23:54.611Z,2.95
2023-02-28T05:26:21.383Z,3.04
2023-02-28T05:28:48.347Z,2.79
2023-02-28T05:31:15.341Z,3.12
2023-02-28T05:33:41.990Z,2.67
2023-02-28T05:36:08.968Z,2.75
2023-02-28T05:38:37.768Z,2.37
2023-02-28T05:41:09.508Z,2.63
2023-02-28T05:43:37.922Z,2.55
2023-02-28T05:46:09.030Z,2.11
2023-02-28T05:48:36.802Z,2.49
2023-02-28T05:51:04.273Z,2.51
2023-02-28T05:53:31.171Z,2.57
2023-02-28T05:55:58.257Z,2.57
2023-02-28T05:58:26.486Z,2.67
2023-02-28T06:00:53.097Z,2.83
2023-02-28T06:03:19.628Z,2.54
2023-02-28T06:05:46.159Z,2.22
2023-02-28T06:08:12.734Z,2.43
2023-02-28T06:10:39.295Z,2.42
2023-02-28T06:13:06.527Z,2.01
2023-02-28T06:15:33.270Z,2.28
2023-02-28T06:18:00.176Z,2.53
2023-02-28T06:20:30.166Z,2.44
2023-02-28T06:22:59.470Z,2.34
2023-02-28T06:25:27.950Z,2.38
2023-02-28T06:27:55.622Z,2.09
2023-02-28T06:30:26.354Z,2.11
2023-02-28T06:32:53.201Z,2.39
2023-02-28T06:35:19.910Z,2.46
2023-02-28T06:37:48.013Z,2.60
2023-02-28T06:40:15.095Z,2.53
2023-02-28T06:42:42.221Z,2.54
2023-02-28T06:45:10.468Z,2.45
2023-02-28T06:47:38.992Z,2.57
2023-02-28T06:50:06.828Z,2.51
2023-02-28T06:52:33.797Z,2.27
2023-02-28T06:55:03.325Z,2.31
2023-02-28T06:57:34.530Z,2.39
2023-02-28T07:00:04.134Z,2.36
2023-02-28T07:02:30.968Z,2.47
2023-02-28T07:04:57.828Z,2.57
2023-02-28T07:07:24.632Z,2.43
2023-02-28T07:09:51.139Z,2.51
2023-02-28T07:12:17.783Z,2.66
2023-02-28T07:14:44.402Z,2.62
2023-02-28T07:17:13.106Z,2.86
2023-02-28T07:19:40.248Z,2.76
2023-02-28T07:22:07.959Z,3.07
2023-02-28T07:24:34.832Z,2.91
2023-02-28T07:27:02.571Z,3.17
2023-02-28T07:29:29.304Z,3.32
2023-02-28T07:31:55.951Z,3.78
2023-02-28T07:34:23.388Z,4.14
2023-02-28T07:36:50.241Z,4.53
2023-02-28T07:39:16.812Z,4.83
2023-02-28T07:41:44.627Z,4.89
2023-02-28T07:44:14.666Z,4.93
2023-02-28T07:46:41.261Z,4.94
2023-02-28T07:49:07.910Z,4.88
2023-02-28T07:51:34.536Z,5.16
2023-02-28T07:54:01.121Z,5.16
2023-02-28T07:56:28.390Z,5.08
2023-02-28T07:58:55.188Z,5.39
2023-02-28T08:01:22.766Z,5.46
2023-02-28T08:03:49.470Z,5.02
2023-02-28T08:06:19.603Z,4.86
2023-02-28T08:08:46.386Z,5.27
2023-02-28T08:11:13.129Z,5.48
2023-02-28T08:13:39.621Z,5.66
2023-02-28T08:16:06.461Z,5.94
2023-02-28T08:18:33.922Z,5.98
2023-02-28T08:21:00.954Z,5.56
2023-02-28T08:23:27.517Z,5.78
2023-02-28T08:25:55.898Z,5.46
2023-02-28T08:28:23.561Z,4.92
2023-02-28T08:30:51.156Z,4.88
2023-02-28T08:33:17.840Z,5.39
2023-02-28T08:35:44.492Z,5.68
2023-02-28T08:38:11.205Z,6.30
2023-02-28T08:40:37.970Z,5.82
2023-02-28T08:43:04.535Z,6.63
2023-02-28T08:45:31.611Z,6.37
2023-02-28T08:47:58.229Z,6.54
2023-02-28T08:50:24.923Z,6.51
2023-02-28T08:52:51.601Z,7.09
2023-02-28T08:55:18.320Z,7.19
2023-02-28T08:57:44.859Z,7.13
2023-02-28T09:00:14.466Z,7.05
2023-02-28T09:02:41.908Z,7.70
2023-02-28T09:05:09.407Z,8.27
2023-02-28T09:07:35.898Z,8.61
2023-02-28T09:10:02.603Z,9.12
2023-02-28T09:12:34.449Z,8.39
2023-02-28T09:15:00.999Z,9.35
2023-02-28T09:17:30.756Z,8.91
2023-02-28T09:19:58.373Z,9.05
2023-02-28T09:22:25.236Z,9.46
2023-02-28T09:24:51.915Z,10.06
2023-02-28T09:27:18.516Z,10.41
2023-02-28T09:29:45.209Z,11.10
2023-02-28T09:32:11.814Z,11.13
2023-02-28T09:34:38.691Z,10.81
2023-02-28T09:37:05.415Z,10.45
2023-02-28T09:39:32.836Z,10.37
2023-02-28T09:41:59.634Z,11.07
2023-02-28T09:44:41.266Z,10.87
2023-02-28T09:47:37.772Z,10.97
2023-02-28T09:50:17.898Z,11.16
2023-02-28T09:52:46.664Z,11.88
2023-02-28T09:55:16.211Z,12.30
2023-02-28T09:57:43.492Z,13.80
2023-02-28T10:00:20.418Z,13.79
2023-02-28T10:03:02.446Z,17.69
2023-02-28T10:05:33.835Z,22.87
2023-02-28T10:08:11.083Z,26.57
2023-02-28T10:10:54.388Z,25.53
2023-02-28T10:13:26.449Z,28.23
2023-02-28T10:16:09.263Z,27.70
2023-02-28T10:18:44.228Z,31.02
2023-02-28T10:21:37.906Z,29.87
2023-02-28T10:26:46.442Z,28.53
2023-02-28T10:29:13.336Z,32.45
2023-02-28T10:31:40.374Z,31.22
2023-02-28T10:34:07.271Z,30.33
2023-02-28T10:36:36.148Z,29.63
2023-02-28T10:39:38.952Z,28.08
2023-02-28T10:42:05.950Z,30.34
2023-02-28T10:44:32.518Z,31.75
2023-02-28T10:46:59.260Z,30.96
2023-02-28T10:49:28.839Z,32.21
2023-02-28T10:52:00.394Z,31.65
2023-02-28T10:54:36.338Z,31.19
2023-02-28T10:57:19.638Z,29.71
2023-02-28T10:59:46.395Z,26.33
2023-02-28T11:02:36.022Z,25.23
2023-02-28T11:05:03.555Z,21.08
2023-02-28T11:07:37.255Z,24.34
2023-02-28T11:10:10.062Z,24.66
2023-02-28T11:12:52.019Z,28.53
2023-02-28T11:15:27.516Z,28.95
2023-02-28T11:18:20.538Z,28.04
2023-02-28T11:20:50.933Z,27.51
2023-02-28T11:23:18.138Z,24.28
2023-02-28T11:25:49.625Z,23.52
2023-02-28T11:28:28.339Z,25.92
2023-02-28T11:31:20.359Z,22.98
2023-02-28T11:33:52.416Z,18.48
2023-02-28T11:36:22.120Z,22.73
2023-02-28T11:38:50.479Z,27.70
2023-02-28T11:41:28.783Z,25.18
2023-02-28T11:44:15.151Z,23.98
2023-02-28T11:46:55.602Z,26.23
2023-02-28T11:49:28.325Z,23.85
2023-02-28T11:52:01.859Z,25.63
2023-02-28T11:54:59.586Z,25.10
2023-02-28T11:57:51.454Z,22.37
2023-02-28T12:00:36.763Z,21.21
2023-02-28T12:03:28.791Z,25.14
2023-02-28T12:06:05.607Z,19.18
2023-02-28T12:08:41.317Z,20.90
2023-02-28T12:11:30.833Z,25.22
2023-02-28T12:14:06.338Z,29.23
2023-02-28T12:16:47.194Z,29.58
2023-02-28T12:19:22.930Z,31.90
2023-02-28T12:22:08.504Z,29.57
2023-02-28T12:24:50.642Z,29.14
2023-02-28T12:27:20.437Z,26.60
2023-02-28T12:30:24.618Z,29.45
2023-02-28T12:32:57.964Z,29.38
2023-02-28T12:35:36.427Z,23.75
2023-02-28T12:38:20.326Z,20.22
2023-02-28T12:41:03.069Z,17.78
2023-02-28T12:43:39.308Z,16.54
2023-02-28T12:46:18.691Z,13.12
2023-02-28T12:48:49.568Z,12.77
2023-02-28T12:51:17.031Z,12.64
2023-02-28T12:54:06.028Z,12.11
2023-02-28T12:56:54.685Z,13.07
2023-02-28T12:59:31.219Z,11.66
2023-02-28T13:02:19.828Z,12.04
2023-02-28T13:04:46.505Z,11.74
2023-02-28T13:07:37.264Z,11.58
2023-02-28T13:10:08.509Z,11.42
2023-02-28T13:12:36.375Z,11.44
2023-02-28T13:15:13.476Z,10.41
2023-02-28T13:17:42.379Z,10.01
2023-02-28T13:20:21.086Z,10.19
2023-02-28T13:22:49.907Z,10.46
2023-02-28T13:25:34.844Z,10.18
2023-02-28T13:28:10.194Z,9.67
2023-02-28T13:30:52.753Z,10.29
2023-02-28T13:33:45.269Z,10.08
2023-02-28T13:36:15.327Z,10.24
2023-02-28T13:38:48.960Z,10.20
2023-02-28T13:41:36.998Z,9.45
2023-02-28T13:44:09.647Z,9.31
2023-02-28T13:46:38.435Z,10.24
2023-02-28T13:49:26.400Z,10.62
2023-02-28T13:51:54.576Z,9.43
2023-02-28T13:54:24.173Z,9.52
2023-02-28T13:57:20.010Z,9.77
2023-02-28T13:59:57.809Z,10.06
2023-02-28T14:02:50.124Z,9.90
2023-02-28T14:05:19.076Z,9.39
2023-02-28T14:07:49.229Z,9.29
2023-02-28T14:11:01.329Z,9.75
2023-02-28T14:13:40.309Z,9.36
2023-02-28T14:16:08.099Z,9.74
2023-02-28T14:18:36.753Z,9.56
2023-02-28T14:21:10.589Z,9.78
2023-02-28T14:24:05.062Z,9.95
2023-02-28T14:27:14.053Z,9.74
2023-02-28T14:30:01.790Z,10.41
2023-02-28T14:32:34.035Z,9.92
2023-02-28T14:35:38.100Z,9.87
2023-02-28T14:38:22.402Z,10.09
2023-02-28T14:40:50.602Z,10.39
2023-02-28T14:43:25.591Z,9.95
2023-02-28T14:45:56.810Z,10.43
2023-02-28T14:48:26.077Z,10.38
2023-02-28T14:50:55.819Z,10.15
2023-02-28T14:53:24.761Z,10.91
2023-02-28T14:55:53.725Z,11.41
2023-02-28T14:58:25.148Z,11.71
2023-02-28T15:00:54.522Z,11.11
2023-02-28T15:03:22.846Z,11.29
2023-02-28T15:05:58.127Z,11.26
2023-02-28T15:08:25.122Z,10.56
2023-02-28T15:10:57.750Z,9.75
2023-02-28T15:13:30.859Z,10.01
2023-02-28T15:16:04.027Z,9.96
2023-02-28T15:18:43.021Z,9.84
2023-02-28T15:21:16.742Z,10.19
2023-02-28T15:23:48.382Z,9.60
2023-02-28T15:26:21.308Z,9.44
2023-02-28T15:28:51.253Z,9.65
2023-02-28T15:31:55.772Z,9.90
2023-02-28T15:34:45.179Z,10.00
2023-02-28T15:37:33.722Z,9.84
2023-02-28T15:40:14.511Z,10.00
2023-02-28T15:42:41.129Z,9.34
2023-02-28T15:45:28.248Z,9.16
2023-02-28T15:47:57.934Z,8.99
2023-02-28T15:50:29.934Z,8.86
2023-02-28T15:52:57.710Z,8.52
2023-02-28T15:55:28.280Z,8.68
2023-02-28T15:57:59.682Z,8.39
2023-02-28T16:00:28.712Z,8.94
2023-02-28T16:02:55.477Z,9.30
2023-02-28T16:05:33.974Z,8.94
2023-02-28T16:08:07.736Z,8.96
2023-02-28T16:10:34.469Z,8.60
2023-02-28T16:13:03.247Z,8.70
2023-02-28T16:15:43.206Z,8.51
2023-02-28T16:18:12.278Z,8.43
2023-02-28T16:20:39.131Z,8.24
2023-02-28T16:23:05.628Z,8.38
2023-02-28T16:25:38.360Z,7.98
2023-02-28T16:28:05.369Z,8.04
2023-02-28T16:30:34.777Z,7.62
2023-02-28T16:33:01.442Z,7.67
2023-02-28T16:35:28.009Z,7.34
2023-02-28T16:37:55.122Z,7.66
2023-02-28T16:40:26.161Z,7.37
2023-02-28T16:42:55.068Z,7.31
2023-02-28T16:45:24.617Z,7.21
2023-02-28T16:47:51.702Z,7.20
2023-02-28T16:50:21.249Z,7.04
2023-02-28T16:52:49.042Z,7.23
2023-02-28T16:55:15.880Z,7.68
2023-02-28T16:57:43.171Z,7.39
2023-02-28T17:00:14.020Z,7.42
2023-02-28T17:02:42.744Z,7.24
2023-02-28T17:05:12.343Z,7.22
2023-02-28T17:07:39.928Z,6.99
2023-02-28T17:10:27.849Z,7.06
2023-02-28T17:12:58.346Z,7.27
2023-02-28T17:15:30.639Z,7.25
2023-02-28T17:17:57.281Z,7.17
2023-02-28T17:20:23.860Z,7.11
2023-02-28T17:22:51.179Z,7.29
2023-02-28T17:25:18.090Z,7.36
2023-02-28T17:27:44.773Z,7.55
2023-02-28T17:30:15.960Z,7.50
2023-02-28T17:32:43.172Z,7.56
2023-02-28T17:35:10.135Z,7.65
2023-02-28T17:37:36.934Z,7.77
2023-02-28T17:40:04.596Z,7.70
2023-02-28T17:42:31.191Z,7.56
2023-02-28T17:44:57.680Z,7.61
2023-02-28T17:47:24.250Z,7.60
2023-02-28T17:49:50.848Z,7.39
2023-02-28T17:52:17.494Z,7.51
2023-02-28T17:54:44.554Z,7.48
2023-02-28T17:57:15.945Z,7.39
2023-02-28T17:59:43.066Z,7.47
2023-02-28T18:02:12.964Z,7.47
2023-02-28T18:04:40.107Z,7.05
2023-02-28T18:07:07.969Z,7.33
2023-02-28T18:09:34.754Z,7.38
2023-02-28T18:12:01.360Z,7.16
2023-02-28T18:14:28.006Z,6.90
2023-02-28T18:16:55.907Z,7.08
2023-02-28T18:19:22.619Z,6.97
2023-02-28T18:21:53.780Z,6.77
2023-02-28T18:24:21.795Z,6.93
2023-02-28T18:26:59.526Z,6.99
2023-02-28T18:29:31.434Z,7.15
2023-02-28T18:31:58.093Z,7.05
2023-02-28T18:37:06.014Z,7.06
2023-02-28T18:39:32.604Z,6.93
2023-02-28T18:41:59.190Z,6.87
2023-02-28T18:44:25.814Z,6.88
2023-02-28T18:46:52.555Z,6.65
2023-02-28T18:49:19.333Z,6.79
2023-02-28T18:51:46.797Z,6.95
2023-02-28T18:54:15.016Z,6.91
2023-02-28T18:56:41.808Z,6.89
2023-02-28T18:59:08.690Z,6.63
2023-02-28T19:01:35.282Z,6.36
2023-02-28T19:04:03.484Z,6.61
2023-02-28T19:06:32.797Z,6.62
2023-02-28T19:09:01.901Z,6.07
2023-02-28T19:11:28.698Z,6.44
2023-02-28T19:13:55.894Z,6.60
2023-02-28T19:16:22.861Z,6.33
2023-02-28T19:18:49.760Z,6.40
2023-02-28T19:21:18.146Z,6.42
2023-02-28T19:23:44.917Z,6.23
2023-02-28T19:26:16.939Z,6.08
2023-02-28T19:28:43.762Z,6.24
2023-02-28T19:31:15.124Z,6.39
2023-02-28T19:33:42.330Z,6.20
2023-02-28T19:36:12.490Z,6.26
2023-02-28T19:38:39.643Z,6.21
2023-02-28T19:41:09.322Z,5.89
2023-02-28T19:43:36.216Z,5.83
2023-02-28T19:46:03.049Z,5.60
2023-02-28T19:48:30.089Z,5.72
2023-02-28T19:51:07.723Z,5.58
2023-02-28T19:53:35.161Z,5.47
2023-02-28T19:56:03.328Z,5.65
2023-02-28T19:58:30.314Z,5.60
2023-02-28T20:00:57.110Z,5.59
2023-02-28T20:03:24.346Z,5.64
2023-02-28T20:06:02.372Z,5.69
2023-02-28T20:08:29.035Z,5.56
2023-02-28T20:10:56.186Z,5.68
2023-02-28T20:13:28.121Z,5.59
2023-02-28T20:15:55.172Z,5.62
2023-02-28T20:18:21.723Z,5.56
2023-02-28T20:20:48.263Z,5.45
2023-02-28T20:23:14.948Z,5.67
2023-02-28T20:25:41.851Z,5.48
2023-02-28T20:28:08.618Z,5.66
2023-02-28T20:30:35.195Z,5.55
2023-02-28T20:33:01.849Z,5.47
2023-02-28T20:35:28.461Z,5.49
2023-02-28T20:37:55.340Z,5.32
2023-02-28T20:40:22.745Z,5.32
2023-02-28T20:42:49.489Z,5.22
2023-02-28T20:45:16.177Z,5.10
2023-02-28T20:47:43.646Z,4.43
2023-02-28T20:50:11.314Z,5.06
2023-02-28T20:52:38.253Z,5.00
2023-02-28T20:55:05.396Z,5.13
2023-02-28T20:57:32.072Z,5.00
2023-02-28T20:59:58.582Z,4.86
2023-02-28T21:02:26.538Z,4.77
2023-02-28T21:04:53.113Z,4.64
2023-02-28T21:07:19.740Z,4.73
2023-02-28T21:09:46.665Z,4.63
2023-02-28T21:12:13.232Z,4.81
2023-02-28T21:14:39.773Z,4.73
2023-02-28T21:17:09.206Z,4.64
2023-02-28T21:19:35.734Z,4.72
2023-02-28T21:22:02.535Z,4.76
2023-02-28T21:24:29.151Z,4.66
2023-02-28T21:26:57.586Z,4.79
2023-02-28T21:29:24.128Z,4.98
2023-02-28T21:31:52.467Z,4.92
2023-02-28T21:34:19.526Z,4.95
2023-02-28T21:36:47.327Z,5.00
2023-02-28T21:39:18.117Z,5.05
2023-02-28T21:41:44.951Z,4.96
2023-02-28T21:44:18.863Z,5.02
2023-02-28T21:46:47.051Z,5.00
2023-02-28T21:49:14.083Z,5.02
2023-02-28T21:51:42.643Z,4.92
2023-02-28T21:54:10.889Z,4.93
2023-02-28T21:56:37.677Z,4.82
2023-02-28T21:59:04.747Z,5.02
2023-02-28T22:01:36.201Z,4.90
2023-02-28T22:04:05.794Z,4.91
2023-02-28T22:06:37.079Z,4.80
2023-02-28T22:09:06.032Z,4.78
2023-02-28T22:11:33.832Z,4.50
2023-02-28T22:14:00.754Z,4.67
2023-02-28T22:16:33.098Z,4.57
2023-02-28T22:19:06.427Z,4.95
2023-02-28T22:21:36.020Z,5.17
2023-02-28T22:24:03.494Z,4.89
2023-02-28T22:26:30.707Z,4.92
2023-02-28T22:28:57.529Z,4.78
2023-02-28T22:31:29.512Z,4.68
2023-02-28T22:33:58.194Z,4.65
2023-02-28T22:36:25.207Z,4.69
2023-02-28T22:38:52.425Z,4.46
2023-02-28T22:41:22.084Z,4.59
2023-02-28T22:43:57.365Z,4.69
2023-02-28T22:46:25.239Z,4.68
2023-02-28T22:48:52.334Z,4.72
2023-02-28T22:51:21.750Z,4.78
2023-02-28T22:53:49.130Z,4.86
2023-02-28T22:56:17.222Z,4.83
2023-02-28T22:58:45.473Z,4.95
2023-02-28T23:01:15.025Z,4.88
2023-02-28T23:03:44.072Z,4.94
2023-02-28T23:06:21.076Z,4.91
2023-02-28T23:08:47.832Z,4.66
2023-02-28T23:11:26.308Z,4.88
2023-02-28T23:13:59.423Z,4.88
2023-02-28T23:16:39.264Z,4.86
2023-02-28T23:19:10.078Z,4.80
2023-02-28T23:21:37.559Z,4.93
2023-02-28T23:24:10.478Z,4.82
2023-02-28T23:26:39.469Z,4.93
2023-02-28T23:29:06.542Z,4.88
2023-02-28T23:31:33.822Z,4.93
2023-02-28T23:34:00.765Z,4.95
2023-02-28T23:36:27.896Z,4.93
2023-02-28T23:38:54.993Z,4.81
2023-02-28T23:41:23.051Z,4.84
2023-02-28T23:43:51.148Z,4.83
2023-02-28T23:46:18.319Z,4.86
2023-02-28T23:48:45.014Z,4.77
2023-02-28T23:51:17.057Z,4.68
2023-02-28T23:53:46.193Z,4.70
2023-02-28T23:56:15.226Z,4.48
2023-02-28T23:58:43.020Z,4.54
